Wind From: 11-12-2017 10:04 Until: 12-12-2017 06:00 warning for: Wind Level: Orange info button

Power and phone distribution networks may be disrupted for relatively long periods., Roofs and chimneys can be damaged. , Tree branches may break. , Vehicles can be deported. , Traffic may be disrupted, particularly on secondary roads in forest areas. Limit your trips. , Limit your speed in highway driving, especially if you drive a vehicle or hitch sensitive to wind. , Do not go for walks in forests or along the coast., In town, be vigilant against possible falling objects., Do not work on roofs and do not touch any electrical line fallen on the ground., Store or secure sensitive objects to wind or likely to be damaged., Always install power generators outside buildings. 


Meteo18 Weather Cam more information Meteo18 Weather Cam


Thunder radar more information blitzortung!


Rain radar more information rain snow radar


Visit our other weather sites:

Template documentation
and downloads

And another site



Weather Underground History page Text

Daily Summary for April 29, 2017 Units:  Metric    English   Both
« Previous Day
Next Day »
Daily Weekly Monthly Yearly Custom
  High: Low: Average:
Temperature: 17.1 °C 0.8 °C 9.7 °C
Dew Point: 6.5 °C 0.1 °C 3 °C
Humidity: 96 % 38 % 67 %
Wind Speed: 16.1 km/h 0.0 km/h 3.1 km/h
Wind Gust: 25.7 km/h - -
Wind:- - ESE
Pressure: 1019.5 hPa 1010.4 hPa -
Precipitation: 0.0 mm    
Historical Graphs
 
 
Tabular Data for April 29, 2017
Time Temperature Dew Point Pressure Wind Wind Speed Wind Gust Humidity Rainfall Rate (Hourly)
00:02 5.5 °C 3.8 °C 1019.2 hPa Calm   1.6 km/h 89 % 0.0 mm
00:12 5.5 °C 4.0 °C 1019.2 hPa Calm   1.6 km/h 90 % 0.0 mm
00:17 5.5 °C 4.0 °C 1019.5 hPa Calm   1.6 km/h 90 % 0.0 mm
00:22 5.6 °C 4.1 °C 1019.5 hPa Calm   1.6 km/h 90 % 0.0 mm
00:32 5.6 °C 3.9 °C 1019.5 hPa Calm     89 % 0.0 mm
00:42 5.5 °C 4.0 °C 1019.2 hPa Calm   1.6 km/h 90 % 0.0 mm
00:52 5.4 °C 3.9 °C 1019.5 hPa Calm   1.6 km/h 90 % 0.0 mm
00:57 5.4 °C 3.9 °C 1019.2 hPa Calm     90 % 0.0 mm
01:02 5.3 °C 3.8 °C 1019.2 hPa Calm     90 % 0.0 mm
01:12 5.1 °C 3.8 °C 1019.2 hPa Calm     91 % 0.0 mm
01:17 5.1 °C 3.8 °C 1019.2 hPa Calm     91 % 0.0 mm
01:22 5.1 °C 3.8 °C 1019.2 hPa Calm     91 % 0.0 mm
01:27 4.9 °C 3.6 °C 1019.2 hPa Calm     91 % 0.0 mm
01:37 4.6 °C 3.3 °C 1019.2 hPa Calm   1.6 km/h 91 % 0.0 mm
01:42 4.4 °C 3.1 °C 1019.2 hPa Calm   1.6 km/h 91 % 0.0 mm
01:47 4.3 °C 3.0 °C 1019.2 hPa Calm     91 % 0.0 mm
01:52 4.3 °C 3.1 °C 1019.2 hPa Calm     92 % 0.0 mm
01:57 4.3 °C 3.1 °C 1019.2 hPa Calm     92 % 0.0 mm
02:02 4.4 °C 3.2 °C 1018.8 hPa Calm     92 % 0.0 mm
02:12 4.2 °C 3.0 °C 1019.2 hPa Calm     92 % 0.0 mm
02:17 4.2 °C 3.0 °C 1018.8 hPa Calm     92 % 0.0 mm
02:22 4.2 °C 3.2 °C 1019.2 hPa Calm     93 % 0.0 mm
02:32 4.2 °C 3.2 °C 1018.8 hPa Calm     93 % 0.0 mm
02:37 4.1 °C 3.1 °C 1019.2 hPa Calm     93 % 0.0 mm
02:42 4.1 °C 3.1 °C 1018.8 hPa Calm     93 % 0.0 mm
02:52 3.9 °C 2.9 °C 1018.8 hPa Calm     93 % 0.0 mm
02:57 3.6 °C 2.4 °C 1018.8 hPa Calm     92 % 0.0 mm
03:02 3.6 °C 2.6 °C 1018.8 hPa WNW 1.6 km/h   93 % 0.0 mm
03:07 3.5 °C 2.5 °C 1018.8 hPa Calm   1.6 km/h 93 % 0.0 mm
03:12 3.6 °C 2.7 °C 1018.8 hPa Calm   1.6 km/h 94 % 0.0 mm
03:17 3.9 °C 3.0 °C 1018.8 hPa Calm   1.6 km/h 94 % 0.0 mm
03:22 3.9 °C 3.0 °C 1018.8 hPa Calm   1.6 km/h 94 % 0.0 mm
03:27 3.8 °C 2.9 °C 1018.8 hPa Calm   1.6 km/h 94 % 0.0 mm
03:32 3.6 °C 2.7 °C 1018.8 hPa Calm   1.6 km/h 94 % 0.0 mm
03:42 3.2 °C 2.2 °C 1018.8 hPa Calm     93 % 0.0 mm
03:52 3.3 °C 2.6 °C 1018.8 hPa Calm     95 % 0.0 mm
03:57 3.2 °C 2.3 °C 1018.8 hPa Calm     94 % 0.0 mm
04:02 3.3 °C 2.6 °C 1018.8 hPa Calm     95 % 0.0 mm
04:12 3.1 °C 2.2 °C 1018.8 hPa Calm     94 % 0.0 mm
04:17 3.1 °C 2.4 °C 1018.8 hPa North 1.6 km/h 1.6 km/h 95 % 0.0 mm
04:22 3.2 °C 2.5 °C 1018.8 hPa Calm   3.2 km/h 95 % 0.0 mm
04:32 2.8 °C 1.9 °C 1018.8 hPa Calm   3.2 km/h 94 % 0.0 mm
04:37 2.8 °C 2.1 °C 1018.8 hPa NW 1.6 km/h 1.6 km/h 95 % 0.0 mm
04:42 2.8 °C 2.1 °C 1018.8 hPa Calm   1.6 km/h 95 % 0.0 mm
04:47 2.7 °C 2.0 °C 1018.8 hPa Calm   1.6 km/h 95 % 0.0 mm
04:52 2.5 °C 1.6 °C 1018.8 hPa Calm   1.6 km/h 94 % 0.0 mm
04:57 2.3 °C 1.4 °C 1018.8 hPa Calm   1.6 km/h 94 % 0.0 mm
05:02 2.4 °C 1.7 °C 1018.8 hPa Calm     95 % 0.0 mm
05:12 1.9 °C 1.0 °C 1018.5 hPa Calm   1.6 km/h 94 % 0.0 mm
05:17 1.9 °C 1.2 °C 1018.5 hPa WNW 1.6 km/h 1.6 km/h 95 % 0.0 mm
05:22 2.1 °C 1.4 °C 1018.5 hPa Calm   1.6 km/h 95 % 0.0 mm
05:32 2.0 °C 1.3 °C 1018.5 hPa WNW 1.6 km/h 1.6 km/h 95 % 0.0 mm
05:37 2.1 °C 1.4 °C 1018.5 hPa WNW 1.6 km/h 1.6 km/h 95 % 0.0 mm
05:42 2.1 °C 1.4 °C 1018.5 hPa Calm   1.6 km/h 95 % 0.0 mm
05:52 2.3 °C 1.7 °C 1018.5 hPa Calm   1.6 km/h 96 % 0.0 mm
05:57 2.2 °C 1.5 °C 1018.5 hPa Calm   1.6 km/h 95 % 0.0 mm
06:02 2.2 °C 1.5 °C 1018.5 hPa Calm   1.6 km/h 95 % 0.0 mm
06:12 2.1 °C 1.5 °C 1018.5 hPa NNE 1.6 km/h 1.6 km/h 96 % 0.0 mm
06:17 1.5 °C 0.6 °C 1018.2 hPa Calm   1.6 km/h 94 % 0.0 mm
06:22 1.2 °C 0.5 °C 1018.5 hPa Calm   1.6 km/h 95 % 0.0 mm
06:32 1.2 °C 0.5 °C 1018.5 hPa Calm   1.6 km/h 95 % 0.0 mm
06:37 0.9 °C 0.2 °C 1018.5 hPa Calm     95 % 0.0 mm
06:42 0.8 °C 0.1 °C 1018.2 hPa Calm     95 % 0.0 mm
06:47 0.8 °C 0.1 °C 1018.2 hPa Calm     95 % 0.0 mm
06:52 0.8 °C 0.2 °C 1018.2 hPa Calm     96 % 0.0 mm
07:02 1.1 °C 0.5 °C 1018.2 hPa Calm     96 % 0.0 mm
07:07 1.1 °C 0.5 °C 1018.2 hPa Calm     96 % 0.0 mm
07:12 1.1 °C 0.5 °C 1018.2 hPa Calm     96 % 0.0 mm
07:17 1.1 °C 0.4 °C 1018.2 hPa Calm     95 % 0.0 mm
07:22 1.3 °C 0.6 °C 1018.2 hPa Calm     95 % 0.0 mm
07:27 1.2 °C 0.5 °C 1018.2 hPa Calm     95 % 0.0 mm
07:32 1.2 °C 0.5 °C 1018.2 hPa Calm     95 % 0.0 mm
07:42 1.9 °C 1.3 °C 1018.2 hPa Calm     96 % 0.0 mm
07:52 2.1 °C 1.4 °C 1018.2 hPa Calm     95 % 0.0 mm
08:02 2.4 °C 1.7 °C 1018.2 hPa Calm     95 % 0.0 mm
08:12 2.4 °C 1.7 °C 1018.2 hPa NNE 1.6 km/h 1.6 km/h 95 % 0.0 mm
08:22 2.9 °C 2.2 °C 1018.2 hPa Calm   3.2 km/h 95 % 0.0 mm
08:32 4.0 °C 3.4 °C 1018.5 hPa Calm     96 % 0.0 mm
08:37 4.5 °C 3.9 °C 1018.5 hPa Calm     96 % 0.0 mm
08:42 5.3 °C 4.7 °C 1018.2 hPa Calm     96 % 0.0 mm
08:47 5.7 °C 5.0 °C 1018.2 hPa Calm     95 % 0.0 mm
08:52 5.9 °C 5.0 °C 1018.2 hPa Calm     94 % 0.0 mm
09:02 6.3 °C 5.3 °C 1018.2 hPa Calm     93 % 0.0 mm
09:07 6.9 °C 5.7 °C 1018.2 hPa Calm     92 % 0.0 mm
09:12 7.1 °C 5.2 °C 1018.2 hPa Calm     88 % 0.0 mm
09:17 7.4 °C 5.5 °C 1018.2 hPa Calm     88 % 0.0 mm
09:27 7.9 °C 5.2 °C 1018.2 hPa Calm     83 % 0.0 mm
09:32 7.9 °C 5.0 °C 1018.2 hPa Calm     82 % 0.0 mm
09:37 8.2 °C 5.1 °C 1018.2 hPa Calm     81 % 0.0 mm
09:42 8.4 °C 5.3 °C 1018.2 hPa Calm   1.6 km/h 81 % 0.0 mm
09:47 8.6 °C 5.3 °C 1018.2 hPa ENE 3.2 km/h 3.2 km/h 80 % 0.0 mm
09:52 8.7 °C 5.4 °C 1018.2 hPa Calm   4.8 km/h 80 % 0.0 mm
10:02 9.3 °C 5.8 °C 1018.2 hPa SE 3.2 km/h 4.8 km/h 79 % 0.0 mm
10:12 9.6 °C 5.6 °C 1018.2 hPa ENE 3.2 km/h 3.2 km/h 76 % 0.0 mm
10:17 9.7 °C 5.7 °C 1018.2 hPa NE 3.2 km/h 3.2 km/h 76 % 0.0 mm
10:22 9.7 °C 5.5 °C 1018.2 hPa ENE 1.6 km/h 6.4 km/h 75 % 0.0 mm
10:27 10.2 °C 6.0 °C 1017.8 hPa East 3.2 km/h 6.4 km/h 75 % 0.0 mm
10:32 10.3 °C 5.7 °C 1017.8 hPa ESE 3.2 km/h 6.4 km/h 73 % 0.0 mm
10:42 10.6 °C 5.8 °C 1017.8 hPa Calm   8.0 km/h 72 % 0.0 mm
10:47 11.1 °C 5.8 °C 1017.8 hPa SE 4.8 km/h 8.0 km/h 70 % 0.0 mm
10:52 11.3 °C 6.0 °C 1017.8 hPa SSW 3.2 km/h 9.7 km/h 70 % 0.0 mm
11:02 11.9 °C 6.2 °C 1017.8 hPa ESE 3.2 km/h 9.7 km/h 68 % 0.0 mm
11:12 11.8 °C 5.9 °C 1017.8 hPa East 3.2 km/h 12.9 km/h 67 % 0.0 mm
11:17 12.0 °C 6.5 °C 1017.8 hPa Calm   12.9 km/h 69 % 0.0 mm
11:22 12.4 °C 6.0 °C 1017.8 hPa SW 3.2 km/h 11.3 km/h 65 % 0.0 mm
11:32 12.9 °C 6.0 °C 1017.8 hPa SE 6.4 km/h 9.7 km/h 63 % 0.0 mm
11:42 13.3 °C 5.5 °C 1017.8 hPa ESE 4.8 km/h 14.5 km/h 59 % 0.0 mm
11:47 13.2 °C 5.8 °C 1017.5 hPa East 8.0 km/h 14.5 km/h 61 % 0.0 mm
11:52 13.4 °C 5.8 °C 1017.5 hPa SW 3.2 km/h 11.3 km/h 60 % 0.0 mm
11:57 13.8 °C 4.9 °C 1017.5 hPa SE 6.4 km/h 11.3 km/h 55 % 0.0 mm
12:02 13.5 °C 5.1 °C 1017.5 hPa East 1.6 km/h 11.3 km/h 57 % 0.0 mm
12:12 13.4 °C 4.5 °C 1017.5 hPa South 4.8 km/h 14.5 km/h 55 % 0.0 mm
12:17 13.6 °C 5.0 °C 1017.5 hPa SE 1.6 km/h 14.5 km/h 56 % 0.0 mm
12:22 13.7 °C 4.3 °C 1017.2 hPa SE 3.2 km/h 14.5 km/h 53 % 0.0 mm
12:32 13.9 °C 3.9 °C 1017.2 hPa SE 6.4 km/h 14.5 km/h 51 % 0.0 mm
12:37 13.9 °C 3.6 °C 1017.2 hPa East 4.8 km/h 14.5 km/h 50 % 0.0 mm
12:42 14.3 °C 3.4 °C 1017.2 hPa SSW 14.5 km/h 14.5 km/h 48 % 0.0 mm
12:47 14.4 °C 4.7 °C 1017.2 hPa NE 1.6 km/h 12.9 km/h 52 % 0.0 mm
12:52 14.6 °C 5.4 °C 1017.2 hPa East 8.0 km/h 16.1 km/h 54 % 0.0 mm
13:02 14.4 °C 4.7 °C 1016.8 hPa East 11.3 km/h 16.1 km/h 52 % 0.0 mm
13:07 14.1 °C 3.8 °C 1016.8 hPa East 8.0 km/h 16.1 km/h 50 % 0.0 mm
13:12 14.4 °C 3.5 °C 1016.8 hPa South 8.0 km/h 16.1 km/h 48 % 0.0 mm
13:17 14.6 °C 3.4 °C 1016.5 hPa SE 3.2 km/h 16.1 km/h 47 % 0.0 mm
13:22 14.7 °C 2.2 °C 1016.5 hPa East 3.2 km/h 17.7 km/h 43 % 0.0 mm
13:32 15.1 °C 3.3 °C 1016.5 hPa SSW 8.0 km/h 12.9 km/h 45 % 0.0 mm
13:37 14.8 °C 3.6 °C 1016.5 hPa East 6.4 km/h 12.9 km/h 47 % 0.0 mm
13:42 15.0 °C 2.8 °C 1016.1 hPa East 9.7 km/h 14.5 km/h 44 % 0.0 mm
13:52 14.7 °C 2.2 °C 1016.1 hPa ENE 3.2 km/h 14.5 km/h 43 % 0.0 mm
14:02 15.3 °C 2.8 °C 1015.8 hPa East 8.0 km/h 16.1 km/h 43 % 0.0 mm
14:12 14.9 °C 3.1 °C 1015.8 hPa NE 4.8 km/h 16.1 km/h 45 % 0.0 mm
14:17 14.7 °C 3.2 °C 1015.8 hPa East 1.6 km/h 16.1 km/h 46 % 0.0 mm
14:22 14.6 °C 3.7 °C 1015.8 hPa ENE 3.2 km/h 16.1 km/h 48 % 0.0 mm
14:32 14.4 °C 3.8 °C 1015.5 hPa ENE 4.8 km/h 17.7 km/h 49 % 0.0 mm
14:42 14.4 °C 4.4 °C 1015.5 hPa SSE 6.4 km/h 17.7 km/h 51 % 0.0 mm
14:52 15.1 °C 3.9 °C 1015.5 hPa ESE 6.4 km/h 17.7 km/h 47 % 0.0 mm
15:02 14.8 °C 3.9 °C 1015.1 hPa East 1.6 km/h 11.3 km/h 48 % 0.0 mm
15:12 14.6 °C 3.4 °C 1015.1 hPa South 4.8 km/h 9.7 km/h 47 % 0.0 mm
15:17 15.1 °C 3.9 °C 1015.1 hPa East 8.0 km/h 16.1 km/h 47 % 0.0 mm
15:22 15.1 °C 3.6 °C 1015.1 hPa East 11.3 km/h 16.1 km/h 46 % 0.0 mm
15:32 15.5 °C 3.6 °C 1014.8 hPa ESE 4.8 km/h 16.1 km/h 45 % 0.0 mm
15:37 15.9 °C 4.3 °C 1014.8 hPa SSW 8.0 km/h 16.1 km/h 46 % 0.0 mm
15:42 15.8 °C 4.2 °C 1014.8 hPa ESE 8.0 km/h 16.1 km/h 46 % 0.0 mm
15:47 16.2 °C 3.9 °C 1014.8 hPa ESE 4.8 km/h 17.7 km/h 44 % 0.0 mm
15:52 16.8 °C 3.5 °C 1014.4 hPa ESE 11.3 km/h 20.9 km/h 41 % 0.0 mm
15:57 16.6 °C 3.6 °C 1014.4 hPa SE 11.3 km/h 20.9 km/h 42 % 0.0 mm
16:02 16.1 °C 3.5 °C 1014.4 hPa ENE 4.8 km/h 20.9 km/h 43 % 0.0 mm
16:07 15.6 °C 3.7 °C 1014.4 hPa ESE 1.6 km/h 24.1 km/h 45 % 0.0 mm
16:12 15.8 °C 4.2 °C 1014.4 hPa ESE 3.2 km/h 24.1 km/h 46 % 0.0 mm
16:17 16.3 °C 3.4 °C 1014.1 hPa SSE 3.2 km/h 24.1 km/h 42 % 0.0 mm
16:22 16.1 °C 3.2 °C 1014.1 hPa ESE 6.4 km/h 17.7 km/h 42 % 0.0 mm
16:27 15.9 °C 3.7 °C 1014.1 hPa East 6.4 km/h 14.5 km/h 44 % 0.0 mm
16:32 16.1 °C 3.8 °C 1014.1 hPa East 9.7 km/h 14.5 km/h 44 % 0.0 mm
16:42 16.6 °C 3.6 °C 1013.8 hPa ENE 4.8 km/h 14.5 km/h 42 % 0.0 mm
16:47 16.9 °C 3.2 °C 1013.8 hPa SSE 3.2 km/h 17.7 km/h 40 % 0.0 mm
16:52 17.1 °C 3.4 °C 1013.4 hPa SSE 3.2 km/h 17.7 km/h 40 % 0.0 mm
16:57 16.8 °C 3.5 °C 1013.4 hPa SE 12.9 km/h 16.1 km/h 41 % 0.0 mm
17:02 16.7 °C 3.4 °C 1013.4 hPa SSE 6.4 km/h 24.1 km/h 41 % 0.0 mm
17:12 16.6 °C 4.0 °C 1013.4 hPa ESE 3.2 km/h 24.1 km/h 43 % 0.0 mm
17:17 16.6 °C 3.3 °C 1013.1 hPa East 11.3 km/h 19.3 km/h 41 % 0.0 mm
17:22 16.5 °C 2.9 °C 1013.1 hPa SE 8.0 km/h 25.7 km/h 40 % 0.0 mm
17:27 16.6 °C 3.3 °C 1013.1 hPa SW 8.0 km/h 25.7 km/h 41 % 0.0 mm
17:32 16.7 °C 3.4 °C 1013.1 hPa ENE 6.4 km/h 25.7 km/h 41 % 0.0 mm
17:37 16.7 °C 3.0 °C 1013.1 hPa ESE 16.1 km/h 22.5 km/h 40 % 0.0 mm
17:42 16.6 °C 2.9 °C 1013.1 hPa SE 9.7 km/h 22.5 km/h 40 % 0.0 mm
17:52 16.7 °C 3.7 °C 1012.8 hPa ESE 1.6 km/h 20.9 km/h 42 % 0.0 mm
17:57 16.9 °C 3.6 °C 1012.8 hPa East 4.8 km/h 22.5 km/h 41 % 0.0 mm
18:02 16.7 °C 3.4 °C 1012.8 hPa East 6.4 km/h 22.5 km/h 41 % 0.0 mm
18:07 16.5 °C 2.9 °C 1012.8 hPa East 8.0 km/h 20.9 km/h 40 % 0.0 mm
18:12 16.6 °C 3.3 °C 1012.8 hPa SE 4.8 km/h 20.9 km/h 41 % 0.0 mm
18:17 16.6 °C 2.9 °C 1012.8 hPa SSE 4.8 km/h 22.5 km/h 40 % 0.0 mm
18:22 16.8 °C 2.4 °C 1012.8 hPa ESE 12.9 km/h 22.5 km/h 38 % 0.0 mm
18:32 16.6 °C 2.6 °C 1012.4 hPa East 3.2 km/h 17.7 km/h 39 % 0.0 mm
18:42 16.6 °C 2.6 °C 1012.4 hPa SSE 6.4 km/h 19.3 km/h 39 % 0.0 mm
18:47 16.6 °C 2.6 °C 1012.1 hPa SE 4.8 km/h 16.1 km/h 39 % 0.0 mm
18:52 16.6 °C 2.2 °C 1012.1 hPa ESE 4.8 km/h 16.1 km/h 38 % 0.0 mm
19:02 16.3 °C 2.3 °C 1012.1 hPa SE 14.5 km/h 17.7 km/h 39 % 0.0 mm
19:12 16.3 °C 2.3 °C 1012.1 hPa ESE 4.8 km/h 17.7 km/h 39 % 0.0 mm
19:17 16.2 °C 2.2 °C 1012.1 hPa SSE 4.8 km/h 14.5 km/h 39 % 0.0 mm
19:22 16.2 °C 2.2 °C 1011.7 hPa ESE 8.0 km/h 19.3 km/h 39 % 0.0 mm
19:27 16.1 °C 2.1 °C 1011.7 hPa East 6.4 km/h 19.3 km/h 39 % 0.0 mm
19:32 15.9 °C 1.6 °C 1011.7 hPa South 11.3 km/h 19.3 km/h 38 % 0.0 mm
19:42 15.7 °C 1.8 °C 1011.7 hPa ESE 8.0 km/h 19.3 km/h 39 % 0.0 mm
19:47 15.6 °C 2.0 °C 1011.7 hPa SE 4.8 km/h 19.3 km/h 40 % 0.0 mm
19:52 15.4 °C 1.9 °C 1011.7 hPa SE 1.6 km/h 19.3 km/h 40 % 0.0 mm
19:57 15.3 °C 2.1 °C 1011.7 hPa ESE 6.4 km/h 16.1 km/h 41 % 0.0 mm
20:02 15.1 °C 2.3 °C 1011.7 hPa ENE 3.2 km/h 14.5 km/h 42 % 0.0 mm
20:12 14.7 °C 2.2 °C 1011.7 hPa ESE 3.2 km/h 12.9 km/h 43 % 0.0 mm
20:17 14.6 °C 2.5 °C 1011.7 hPa SE 1.6 km/h 11.3 km/h 44 % 0.0 mm
20:27 14.2 °C 2.1 °C 1011.4 hPa SE 4.8 km/h 8.0 km/h 44 % 0.0 mm
20:32 14.2 °C 1.8 °C 1011.4 hPa ESE 3.2 km/h 6.4 km/h 43 % 0.0 mm
20:42 13.7 °C 2.0 °C 1011.4 hPa East 6.4 km/h 9.7 km/h 45 % 0.0 mm
20:52 13.2 °C 1.8 °C 1011.4 hPa East 4.8 km/h 9.7 km/h 46 % 0.0 mm
20:57 13.1 °C 1.7 °C 1011.4 hPa ENE 3.2 km/h 8.0 km/h 46 % 0.0 mm
21:02 12.9 °C 1.9 °C 1011.4 hPa East 6.4 km/h 9.7 km/h 47 % 0.0 mm
21:12 12.6 °C 1.9 °C 1011.4 hPa East 4.8 km/h 9.7 km/h 48 % 0.0 mm
21:17 12.6 °C 1.9 °C 1011.4 hPa East 4.8 km/h 9.7 km/h 48 % 0.0 mm
21:22 12.5 °C 1.8 °C 1011.4 hPa East 3.2 km/h 9.7 km/h 48 % 0.0 mm
21:32 12.4 °C 1.4 °C 1011.4 hPa ESE 1.6 km/h 9.7 km/h 47 % 0.0 mm
21:42 12.3 °C 1.6 °C 1011.4 hPa East 3.2 km/h 8.0 km/h 48 % 0.0 mm
21:47 12.3 °C 1.6 °C 1011.4 hPa East 3.2 km/h 8.0 km/h 48 % 0.0 mm
21:52 12.2 °C 1.5 °C 1011.4 hPa East 3.2 km/h 8.0 km/h 48 % 0.0 mm
21:57 12.2 °C 1.5 °C 1011.4 hPa ENE 3.2 km/h 8.0 km/h 48 % 0.0 mm
22:02 12.1 °C 1.7 °C 1011.4 hPa ENE 3.2 km/h 9.7 km/h 49 % 0.0 mm
22:07 11.8 °C 1.7 °C 1011.4 hPa ENE 3.2 km/h 9.7 km/h 50 % 0.0 mm
22:12 11.8 °C 1.7 °C 1011.1 hPa ENE 3.2 km/h 9.7 km/h 50 % 0.0 mm
22:17 11.8 °C 1.7 °C 1011.1 hPa ENE 4.8 km/h 9.7 km/h 50 % 0.0 mm
22:22 11.7 °C 1.6 °C 1011.1 hPa ENE 3.2 km/h 8.0 km/h 50 % 0.0 mm
22:27 11.4 °C 1.6 °C 1011.1 hPa ENE 3.2 km/h 9.7 km/h 51 % 0.0 mm
22:32 11.3 °C 1.8 °C 1011.1 hPa ENE 3.2 km/h 9.7 km/h 52 % 0.0 mm
22:42 11.0 °C 1.8 °C 1011.1 hPa ENE 3.2 km/h 9.7 km/h 53 % 0.0 mm
22:47 10.7 °C 1.8 °C 1011.1 hPa ENE 3.2 km/h 9.7 km/h 54 % 0.0 mm
22:52 10.5 °C 1.8 °C 1011.1 hPa NE 4.8 km/h 9.7 km/h 55 % 0.0 mm
23:02 10.4 °C 1.7 °C 1011.1 hPa NE 4.8 km/h 8.0 km/h 55 % 0.0 mm
23:07 10.3 °C 1.9 °C 1011.1 hPa NE 6.4 km/h 6.4 km/h 56 % 0.0 mm
23:12 10.1 °C 2.0 °C 1011.1 hPa NE 4.8 km/h 6.4 km/h 57 % 0.0 mm
23:17 9.9 °C 2.0 °C 1011.1 hPa NE 4.8 km/h 8.0 km/h 58 % 0.0 mm
23:22 9.7 °C 1.8 °C 1010.7 hPa NE 4.8 km/h 8.0 km/h 58 % 0.0 mm
23:32 9.7 °C 2.1 °C 1010.7 hPa NE 4.8 km/h 8.0 km/h 59 % 0.0 mm
23:37 9.7 °C 2.1 °C 1010.7 hPa NE 3.2 km/h 8.0 km/h 59 % 0.0 mm
23:42 9.6 °C 2.0 °C 1010.7 hPa NE 3.2 km/h 8.0 km/h 59 % 0.0 mm
23:47 9.5 °C 2.1 °C 1010.7 hPa NE 1.6 km/h 6.4 km/h 60 % 0.0 mm
23:52 9.4 °C 2.0 °C 1010.4 hPa NE 3.2 km/h 6.4 km/h 60 % 0.0 mm
23:57 9.3 °C 1.9 °C 1010.4 hPa NE 3.2 km/h 6.4 km/h 60 % 0.0 mm
Meteo18
Compliments of Weather Underground - 4 mb

Script developed by  Jim McMurry - jmcmurry@mwt.net Adapted for the template by  Wim van der Kuil - Leuven-Template.eu

You find our weather info also at:

European Weather Network

Weather Underground

Equipment we use:

Weather-station
Davis Vue

Weather-program
Meteohub

Weather-server
Raspberry PI 2 B+

Provider
1 and 1

Davis Vue

Meteohub

Raspberry PI 2 B+

1 and 1